createdAt,value
2023-02-17T00:00:31.480Z,47.65
2023-02-17T00:02:59.045Z,47.72
2023-02-17T00:05:26.842Z,48.07
2023-02-17T00:07:54.168Z,48.34
2023-02-17T00:10:20.784Z,47.51
2023-02-17T00:12:47.265Z,48.18
2023-02-17T00:15:13.808Z,48.23
2023-02-17T00:17:40.424Z,47.67
2023-02-17T00:20:07.557Z,48.11
2023-02-17T00:22:34.082Z,48.14
2023-02-17T00:25:00.792Z,48.57
2023-02-17T00:27:27.476Z,48.82
2023-02-17T00:29:54.113Z,48.75
2023-02-17T00:32:20.725Z,48.99
2023-02-17T00:34:49.617Z,48.85
2023-02-17T00:37:16.247Z,48.99
2023-02-17T00:39:42.908Z,48.67
2023-02-17T00:42:10.466Z,48.63
2023-02-17T00:44:37.061Z,48.43
2023-02-17T00:47:03.567Z,48.40
2023-02-17T00:49:30.228Z,48.11
2023-02-17T00:52:00.301Z,47.47
2023-02-17T00:54:27.061Z,47.92
2023-02-17T00:56:53.736Z,47.37
2023-02-17T00:59:20.331Z,47.68
2023-02-17T01:01:47.183Z,47.83
2023-02-17T01:04:13.795Z,47.50
2023-02-17T01:06:40.543Z,47.97
2023-02-17T01:09:09.409Z,47.08
2023-02-17T01:11:36.486Z,47.70
2023-02-17T01:14:05.506Z,46.76
2023-02-17T01:16:35.975Z,47.35
2023-02-17T01:19:07.648Z,46.76
2023-02-17T01:21:35.343Z,47.47
2023-02-17T01:24:04.681Z,47.13
2023-02-17T01:26:33.140Z,47.54
2023-02-17T01:29:02.157Z,47.29
2023-02-17T01:31:29.496Z,47.77
2023-02-17T01:33:58.161Z,47.24
2023-02-17T01:36:25.039Z,47.02
2023-02-17T01:38:51.723Z,46.65
2023-02-17T01:41:20.757Z,46.74
2023-02-17T01:44:16.499Z,44.90
2023-02-17T01:46:48.222Z,46.73
2023-02-17T01:49:23.509Z,44.64
2023-02-17T01:51:56.068Z,45.84
2023-02-17T01:54:30.225Z,44.91
2023-02-17T01:56:59.688Z,47.29
2023-02-17T01:59:26.641Z,47.03
2023-02-17T02:01:58.710Z,45.48
2023-02-17T02:04:29.544Z,46.47
2023-02-17T02:06:56.644Z,47.29
2023-02-17T02:09:36.449Z,45.57
2023-02-17T02:12:03.446Z,47.30
2023-02-17T02:14:32.704Z,47.73
2023-02-17T02:17:21.351Z,45.28
2023-02-17T02:20:08.766Z,45.54
2023-02-17T02:22:52.585Z,47.91
2023-02-17T02:25:56.700Z,45.89
2023-02-17T02:28:45.557Z,47.72
2023-02-17T02:31:29.913Z,46.01
2023-02-17T02:34:05.969Z,47.10
2023-02-17T02:36:56.213Z,48.38
2023-02-17T02:39:29.264Z,47.38
2023-02-17T02:42:03.454Z,47.41
2023-02-17T02:44:30.541Z,48.45
2023-02-17T02:47:02.605Z,48.29
2023-02-17T02:49:31.811Z,48.13
2023-02-17T02:52:21.313Z,46.43
2023-02-17T02:55:08.055Z,46.98
2023-02-17T02:57:51.215Z,45.52
2023-02-17T03:00:38.545Z,46.49
2023-02-17T03:03:15.426Z,46.16
2023-02-17T03:05:55.031Z,45.67
2023-02-17T03:08:49.045Z,46.16
2023-02-17T03:11:16.910Z,48.17
2023-02-17T03:13:43.404Z,47.55
2023-02-17T03:16:13.933Z,47.91
2023-02-17T03:18:40.581Z,48.14
2023-02-17T03:21:15.073Z,46.43
2023-02-17T03:23:42.545Z,48.22
2023-02-17T03:26:09.194Z,47.77
2023-02-17T03:28:35.810Z,47.31
2023-02-17T03:31:02.621Z,47.73
2023-02-17T03:33:29.414Z,47.88
2023-02-17T03:35:56.135Z,48.05
2023-02-17T03:38:22.919Z,48.18
2023-02-17T03:40:49.398Z,47.89
2023-02-17T03:43:17.914Z,47.92
2023-02-17T03:45:44.752Z,48.05
2023-02-17T03:48:11.290Z,47.89
2023-02-17T03:50:37.811Z,48.17
2023-02-17T03:53:04.290Z,47.82
2023-02-17T03:55:31.111Z,47.86
2023-02-17T03:57:57.650Z,46.96
2023-02-17T04:00:24.220Z,47.41
2023-02-17T04:02:50.699Z,47.35
2023-02-17T04:05:17.257Z,46.72
2023-02-17T04:07:43.810Z,47.62
2023-02-17T04:10:11.010Z,47.32
2023-02-17T04:12:37.538Z,46.70
2023-02-17T04:15:04.454Z,47.38
2023-02-17T04:17:31.069Z,47.54
2023-02-17T04:19:57.711Z,47.48
2023-02-17T04:22:24.242Z,47.83
2023-02-17T04:24:51.018Z,47.34
2023-02-17T04:27:17.560Z,47.41
2023-02-17T04:29:44.066Z,47.30
2023-02-17T04:32:10.652Z,47.51
2023-02-17T04:34:37.181Z,47.76
2023-02-17T04:37:03.828Z,47.75
2023-02-17T04:39:30.407Z,47.74
2023-02-17T04:41:57.337Z,47.49
2023-02-17T04:44:23.917Z,47.77
2023-02-17T04:46:50.433Z,47.65
2023-02-17T04:49:16.948Z,47.66
2023-02-17T04:51:43.481Z,47.15
2023-02-17T04:54:10.051Z,46.98
2023-02-17T04:56:36.534Z,47.09
2023-02-17T04:59:03.160Z,46.89
2023-02-17T05:01:29.749Z,47.20
2023-02-17T05:03:56.342Z,47.27
2023-02-17T05:06:22.886Z,47.00
2023-02-17T05:08:49.362Z,46.96
2023-02-17T05:11:16.544Z,46.89
2023-02-17T05:13:43.201Z,46.86
2023-02-17T05:16:09.928Z,45.88
2023-02-17T05:18:36.484Z,46.14
2023-02-17T05:21:03.096Z,46.57
2023-02-17T05:23:29.646Z,46.66
2023-02-17T05:25:56.193Z,46.98
2023-02-17T05:28:22.864Z,46.54
2023-02-17T05:30:49.972Z,46.77
2023-02-17T05:33:16.718Z,46.56
2023-02-17T05:35:43.440Z,46.80
2023-02-17T05:38:10.145Z,46.62
2023-02-17T05:40:36.660Z,46.62
2023-02-17T05:43:03.209Z,46.85
2023-02-17T05:45:29.733Z,46.66
2023-02-17T05:47:56.396Z,46.50
2023-02-17T05:50:22.990Z,46.27
2023-02-17T05:52:49.473Z,45.73
2023-02-17T05:55:16.050Z,46.03
2023-02-17T05:57:42.662Z,45.85
2023-02-17T06:00:09.884Z,46.43
2023-02-17T06:02:39.552Z,46.14
2023-02-17T06:05:06.585Z,46.04
2023-02-17T06:07:33.157Z,46.46
2023-02-17T06:09:59.679Z,46.08
2023-02-17T06:12:26.587Z,45.89
2023-02-17T06:14:53.233Z,45.95
2023-02-17T06:17:19.770Z,45.47
2023-02-17T06:19:46.208Z,44.63
2023-02-17T06:22:12.930Z,45.12
2023-02-17T06:24:39.538Z,45.39
2023-02-17T06:27:06.367Z,45.40
2023-02-17T06:29:33.329Z,45.43
2023-02-17T06:32:00.038Z,45.25
2023-02-17T06:34:26.702Z,45.34
2023-02-17T06:36:53.978Z,45.54
2023-02-17T06:39:20.456Z,44.99
2023-02-17T06:41:47.239Z,45.42
2023-02-17T06:44:13.794Z,45.73
2023-02-17T06:46:40.461Z,45.00
2023-02-17T06:49:07.124Z,45.50
2023-02-17T06:51:33.637Z,45.24
2023-02-17T06:54:00.184Z,45.71
2023-02-17T06:56:26.995Z,45.73
2023-02-17T07:01:56.407Z,46.27
2023-02-17T07:04:22.937Z,46.54
2023-02-17T07:06:49.504Z,46.98
2023-02-17T07:09:15.995Z,47.46
2023-02-17T07:11:42.728Z,47.60
2023-02-17T07:14:09.185Z,47.85
2023-02-17T07:16:35.757Z,47.48
2023-02-17T07:19:02.447Z,48.32
2023-02-17T07:21:28.985Z,48.51
2023-02-17T07:23:55.553Z,48.72
2023-02-17T07:26:22.415Z,48.69
2023-02-17T07:28:48.926Z,49.21
2023-02-17T07:31:17.512Z,48.72
2023-02-17T07:33:44.865Z,49.04
2023-02-17T07:36:16.854Z,47.02
2023-02-17T07:38:43.648Z,49.08
2023-02-17T07:41:14.201Z,48.03
2023-02-17T07:43:41.304Z,49.64
2023-02-17T07:46:10.255Z,49.81
2023-02-17T07:48:37.246Z,48.79
2023-02-17T07:51:08.925Z,49.64
2023-02-17T07:53:36.159Z,48.75
2023-02-17T07:56:08.500Z,48.66
2023-02-17T07:58:38.025Z,48.64
2023-02-17T08:01:19.828Z,48.36
2023-02-17T08:03:47.528Z,47.73
2023-02-17T08:06:17.504Z,47.76
2023-02-17T08:08:44.547Z,47.69
2023-02-17T08:11:13.655Z,47.67
2023-02-17T08:13:40.233Z,47.93
2023-02-17T08:16:07.046Z,47.70
2023-02-17T08:18:36.510Z,47.69
2023-02-17T08:21:03.812Z,47.68
2023-02-17T08:23:30.436Z,47.81
2023-02-17T08:25:58.298Z,48.29
2023-02-17T08:28:25.122Z,47.18
2023-02-17T08:30:51.875Z,47.64
2023-02-17T08:33:18.572Z,47.79
2023-02-17T08:35:45.594Z,47.89
2023-02-17T08:38:12.180Z,46.88
2023-02-17T08:40:38.859Z,47.39
2023-02-17T08:43:10.449Z,47.35
2023-02-17T08:45:37.360Z,46.76
2023-02-17T08:48:04.983Z,46.93
2023-02-17T08:50:33.029Z,46.50
2023-02-17T08:52:59.671Z,46.84
2023-02-17T08:55:26.187Z,46.81
2023-02-17T08:57:52.799Z,46.51
2023-02-17T09:00:19.402Z,46.21
2023-02-17T09:02:46.220Z,46.67
2023-02-17T09:05:14.067Z,46.49
2023-02-17T09:07:41.400Z,46.32
2023-02-17T09:10:09.088Z,46.04
2023-02-17T09:12:35.721Z,45.76
2023-02-17T09:15:02.268Z,46.39
2023-02-17T09:17:28.800Z,46.54
2023-02-17T09:19:55.334Z,45.92
2023-02-17T09:22:31.607Z,46.36
2023-02-17T09:24:58.895Z,46.78
2023-02-17T09:27:25.495Z,47.15
2023-02-17T09:29:52.036Z,47.35
2023-02-17T09:32:18.766Z,47.10
2023-02-17T09:34:45.522Z,47.27
2023-02-17T09:37:13.374Z,47.61
2023-02-17T09:39:39.966Z,47.81
2023-02-17T09:42:06.590Z,48.35
2023-02-17T09:44:43.553Z,48.51
2023-02-17T09:47:24.974Z,48.43
2023-02-17T09:49:57.355Z,48.60
2023-02-17T09:52:32.927Z,49.20
2023-02-17T09:55:07.726Z,48.83
2023-02-17T09:57:56.406Z,49.00
2023-02-17T10:00:32.488Z,47.86
2023-02-17T10:03:18.695Z,47.96
2023-02-17T10:05:55.833Z,48.56
2023-02-17T10:08:27.410Z,48.83
2023-02-17T10:11:05.633Z,47.83
2023-02-17T10:13:35.647Z,47.95
2023-02-17T10:16:10.336Z,47.93
2023-02-17T10:18:44.782Z,47.78
2023-02-17T10:21:16.386Z,48.07
2023-02-17T10:23:43.036Z,47.64
2023-02-17T10:26:34.004Z,47.43
2023-02-17T10:29:12.644Z,47.22
2023-02-17T10:32:00.670Z,47.71
2023-02-17T10:34:54.886Z,46.19
2023-02-17T10:38:02.068Z,46.83
2023-02-17T10:40:29.178Z,47.08
2023-02-17T10:43:01.288Z,46.41
2023-02-17T10:45:35.366Z,45.98
2023-02-17T10:48:09.443Z,46.50
2023-02-17T10:50:37.960Z,46.52
2023-02-17T10:53:14.364Z,46.62
2023-02-17T10:58:35.486Z,46.03
2023-02-17T11:01:03.473Z,46.89
2023-02-17T11:03:33.099Z,45.87
2023-02-17T11:06:09.408Z,45.53
2023-02-17T11:08:50.827Z,44.63
2023-02-17T11:11:24.309Z,45.50
2023-02-17T11:14:06.636Z,44.32
2023-02-17T11:16:46.277Z,45.09
2023-02-17T11:20:09.578Z,44.83
2023-02-17T11:22:34.338Z,44.91
2023-02-17T11:25:28.742Z,45.08
2023-02-17T11:28:07.139Z,45.70
2023-02-17T11:30:40.299Z,43.96
2023-02-17T11:33:26.944Z,44.46
2023-02-17T11:35:56.862Z,44.56
2023-02-17T11:38:26.157Z,43.38
2023-02-17T11:41:00.178Z,42.73
2023-02-17T11:43:29.991Z,44.84
2023-02-17T11:46:09.496Z,44.58
2023-02-17T11:49:14.439Z,44.33
2023-02-17T11:51:46.951Z,42.96
2023-02-17T11:58:06.760Z,44.20
2023-02-17T12:00:47.803Z,45.06
2023-02-17T12:03:48.500Z,44.45
2023-02-17T12:06:36.496Z,45.03
2023-02-17T12:09:09.107Z,44.30
2023-02-17T12:12:15.726Z,44.47
2023-02-17T12:15:03.538Z,44.90
2023-02-17T12:17:36.217Z,44.95
2023-02-17T12:20:15.213Z,45.15
2023-02-17T12:22:52.015Z,43.25
2023-02-17T12:25:38.678Z,44.16
2023-02-17T12:28:46.949Z,44.93
2023-02-17T12:31:29.780Z,43.71
2023-02-17T12:34:25.275Z,45.12
2023-02-17T12:37:10.954Z,44.31
2023-02-17T12:39:51.829Z,43.57
2023-02-17T12:42:30.445Z,44.07
2023-02-17T12:45:03.786Z,44.39
2023-02-17T12:48:10.290Z,44.65
2023-02-17T12:50:52.174Z,44.60
2023-02-17T12:53:48.929Z,43.87
2023-02-17T13:00:33.682Z,43.55
2023-02-17T13:03:37.253Z,45.31
2023-02-17T13:06:48.941Z,44.40
2023-02-17T13:10:08.033Z,44.24
2023-02-17T13:13:40.175Z,43.74
2023-02-17T13:30:12.849Z,45.05
2023-02-17T13:43:10.876Z,45.33
2023-02-17T13:47:10.076Z,45.14
2023-02-17T13:49:44.819Z,46.05
2023-02-17T13:56:24.655Z,45.20
2023-02-17T13:59:42.716Z,45.95
2023-02-17T14:05:59.547Z,46.21
2023-02-17T14:08:39.192Z,46.11
2023-02-17T14:11:18.414Z,46.83
2023-02-17T14:17:34.132Z,46.59
2023-02-17T14:20:33.149Z,47.05
2023-02-17T14:26:45.869Z,48.42
2023-02-17T14:29:32.975Z,48.30
2023-02-17T14:32:46.202Z,48.75
2023-02-17T14:39:00.008Z,48.72
2023-02-17T14:41:58.587Z,49.45
2023-02-17T14:44:44.157Z,48.63
2023-02-17T14:50:33.837Z,49.20
2023-02-17T14:53:41.755Z,49.19
2023-02-17T14:57:12.164Z,48.99
2023-02-17T15:03:34.490Z,49.05
2023-02-17T15:06:14.425Z,48.67
2023-02-17T15:09:03.324Z,48.55
2023-02-17T15:11:48.874Z,48.79
2023-02-17T15:14:46.265Z,48.39
2023-02-17T15:17:26.824Z,48.50
2023-02-17T15:30:12.580Z,49.34
2023-02-17T15:32:55.266Z,49.03
2023-02-17T15:35:42.653Z,49.50
2023-02-17T15:38:13.656Z,48.62
2023-02-17T15:40:41.456Z,49.76
2023-02-17T15:43:20.659Z,49.88
2023-02-17T15:45:47.673Z,50.61
2023-02-17T15:48:24.271Z,50.98
2023-02-17T15:50:51.376Z,51.60
2023-02-17T15:53:18.092Z,51.80
2023-02-17T15:55:45.172Z,51.71
2023-02-17T15:58:18.077Z,51.69
2023-02-17T16:00:45.708Z,52.25
2023-02-17T16:03:13.605Z,52.60
2023-02-17T16:05:40.285Z,52.95
2023-02-17T16:08:06.857Z,52.94
2023-02-17T16:10:34.621Z,53.24
2023-02-17T16:13:02.785Z,53.14
2023-02-17T16:15:31.948Z,53.19
2023-02-17T16:17:58.982Z,53.24
2023-02-17T16:20:34.391Z,52.28
2023-02-17T16:23:01.635Z,53.00
2023-02-17T16:25:29.516Z,53.09
2023-02-17T16:27:56.166Z,52.81
2023-02-17T16:30:29.249Z,53.02
2023-02-17T16:32:56.313Z,53.06
2023-02-17T16:35:31.235Z,52.67
2023-02-17T16:38:05.328Z,52.16
2023-02-17T16:40:34.821Z,52.53
2023-02-17T16:43:01.506Z,52.61
2023-02-17T16:45:31.850Z,51.89
2023-02-17T16:48:01.078Z,51.70
2023-02-17T16:50:33.725Z,52.42
2023-02-17T16:53:06.120Z,51.82
2023-02-17T16:55:34.423Z,52.12
2023-02-17T16:58:02.886Z,52.27
2023-02-17T17:00:33.091Z,52.10
2023-02-17T17:02:59.951Z,52.29
2023-02-17T17:05:28.711Z,52.25
2023-02-17T17:07:56.067Z,52.50
2023-02-17T17:10:31.320Z,52.13
2023-02-17T17:12:58.331Z,52.80
2023-02-17T17:15:25.008Z,52.99
2023-02-17T17:17:54.539Z,53.10
2023-02-17T17:20:23.349Z,53.11
2023-02-17T17:22:50.134Z,53.37
2023-02-17T17:25:17.445Z,53.48
2023-02-17T17:27:44.080Z,53.08
2023-02-17T17:30:18.324Z,53.32
2023-02-17T17:32:45.126Z,53.70
2023-02-17T17:35:11.980Z,53.52
2023-02-17T17:37:39.553Z,53.72
2023-02-17T17:40:07.516Z,53.67
2023-02-17T17:42:34.173Z,53.63
2023-02-17T17:45:00.647Z,53.77
2023-02-17T17:47:30.171Z,53.75
2023-02-17T17:49:57.168Z,53.70
2023-02-17T17:52:23.936Z,53.82
2023-02-17T17:54:50.553Z,53.87
2023-02-17T17:57:17.040Z,53.91
2023-02-17T17:59:43.752Z,53.89
2023-02-17T18:02:10.351Z,54.01
2023-02-17T18:04:36.966Z,54.06
2023-02-17T18:07:03.660Z,54.06
2023-02-17T18:09:34.696Z,53.92
2023-02-17T18:12:05.698Z,53.98
2023-02-17T18:14:32.658Z,54.38
2023-02-17T18:16:59.600Z,54.47
2023-02-17T18:19:26.689Z,54.42
2023-02-17T18:21:53.197Z,54.44
2023-02-17T18:24:19.902Z,54.50
2023-02-17T18:26:46.452Z,54.53
2023-02-17T18:29:13.152Z,54.76
2023-02-17T18:31:39.833Z,54.66
2023-02-17T18:34:06.480Z,54.84
2023-02-17T18:36:32.985Z,54.79
2023-02-17T18:38:59.516Z,54.85
2023-02-17T18:41:29.222Z,54.85
2023-02-17T18:43:57.451Z,54.91
2023-02-17T18:46:26.576Z,54.96
2023-02-17T18:48:55.349Z,54.96
2023-02-17T18:51:23.391Z,54.96
2023-02-17T18:53:50.890Z,54.93
2023-02-17T18:56:20.627Z,54.80
2023-02-17T18:58:48.029Z,54.93
2023-02-17T19:01:16.708Z,54.86
2023-02-17T19:03:44.333Z,54.59
2023-02-17T19:06:19.631Z,54.49
2023-02-17T19:08:48.032Z,55.02
2023-02-17T19:11:16.512Z,54.91
2023-02-17T19:13:43.008Z,55.03
2023-02-17T19:16:15.353Z,54.85
2023-02-17T19:18:43.524Z,54.80
2023-02-17T19:21:10.573Z,54.84
2023-02-17T19:23:37.895Z,54.98
2023-02-17T19:26:06.280Z,55.04
2023-02-17T19:28:35.258Z,54.84
2023-02-17T19:31:02.541Z,54.97
2023-02-17T19:33:29.062Z,55.05
2023-02-17T19:35:55.585Z,55.19
2023-02-17T19:38:22.169Z,55.14
2023-02-17T19:40:48.721Z,55.00
2023-02-17T19:43:15.316Z,55.06
2023-02-17T19:45:41.947Z,54.86
2023-02-17T19:48:08.465Z,55.24
2023-02-17T19:50:37.568Z,54.97
2023-02-17T19:53:04.129Z,55.05
2023-02-17T19:55:30.618Z,55.12
2023-02-17T19:57:57.135Z,55.13
2023-02-17T20:00:25.046Z,55.40
2023-02-17T20:02:51.922Z,55.29
2023-02-17T20:05:18.765Z,55.28
2023-02-17T20:07:45.240Z,55.20
2023-02-17T20:10:12.688Z,55.10
2023-02-17T20:12:39.349Z,55.14
2023-02-17T20:15:06.290Z,55.05
2023-02-17T20:17:32.974Z,55.02
2023-02-17T20:19:59.637Z,55.08
2023-02-17T20:22:26.471Z,54.98
2023-02-17T20:24:53.045Z,55.12
2023-02-17T20:27:19.586Z,54.99
2023-02-17T20:29:46.175Z,55.00
2023-02-17T20:32:12.817Z,54.80
2023-02-17T20:34:40.409Z,54.89
2023-02-17T20:37:08.069Z,54.76
2023-02-17T20:39:35.526Z,54.79
2023-02-17T20:42:03.258Z,54.77
2023-02-17T20:44:29.866Z,54.14
2023-02-17T20:46:57.242Z,54.57
2023-02-17T20:49:24.430Z,54.58
2023-02-17T20:51:51.199Z,54.52
2023-02-17T20:54:18.137Z,54.45
2023-02-17T20:56:46.670Z,54.48
2023-02-17T20:59:14.277Z,54.65
2023-02-17T21:01:42.039Z,54.61
2023-02-17T21:04:09.197Z,54.54
2023-02-17T21:06:38.499Z,54.19
2023-02-17T21:09:09.366Z,53.36
2023-02-17T21:11:35.985Z,53.95
2023-02-17T21:14:02.495Z,53.90
2023-02-17T21:16:30.920Z,53.63
2023-02-17T21:18:58.893Z,53.75
2023-02-17T21:21:26.136Z,53.69
2023-02-17T21:23:53.101Z,53.35
2023-02-17T21:26:20.057Z,53.00
2023-02-17T21:28:47.302Z,53.30
2023-02-17T21:31:15.189Z,53.22
2023-02-17T21:33:43.010Z,52.83
2023-02-17T21:36:17.733Z,52.84
2023-02-17T21:38:44.434Z,53.12
2023-02-17T21:41:16.495Z,52.84
2023-02-17T21:43:43.366Z,52.79
2023-02-17T21:46:11.848Z,53.12
2023-02-17T21:48:38.439Z,52.63
2023-02-17T21:51:09.909Z,52.70
2023-02-17T21:53:36.698Z,52.79
2023-02-17T21:56:04.924Z,52.62
2023-02-17T21:58:33.349Z,52.97
2023-02-17T22:01:00.356Z,52.93
2023-02-17T22:03:27.587Z,53.07
2023-02-17T22:05:54.080Z,53.37
2023-02-17T22:08:20.866Z,53.16
2023-02-17T22:10:47.603Z,53.18
2023-02-17T22:13:14.166Z,53.38
2023-02-17T22:15:40.688Z,53.22
2023-02-17T22:18:07.388Z,53.30
2023-02-17T22:20:34.337Z,53.40
2023-02-17T22:23:00.898Z,53.50
2023-02-17T22:25:27.358Z,53.52
2023-02-17T22:27:53.932Z,53.96
2023-02-17T22:30:20.753Z,53.97
2023-02-17T22:32:47.310Z,54.11
2023-02-17T22:35:14.163Z,53.91
2023-02-17T22:37:40.726Z,54.12
2023-02-17T22:40:08.267Z,54.28
2023-02-17T22:42:34.830Z,54.33
2023-02-17T22:45:01.405Z,54.29
2023-02-17T22:47:28.044Z,54.77
2023-02-17T22:49:54.564Z,54.67
2023-02-17T22:52:21.205Z,54.76
2023-02-17T22:54:47.797Z,54.84
2023-02-17T22:57:14.280Z,54.80
2023-02-17T22:59:41.015Z,54.83
2023-02-17T23:02:07.573Z,54.92
2023-02-17T23:04:34.330Z,54.86
2023-02-17T23:07:00.899Z,54.88
2023-02-17T23:09:27.456Z,54.85
2023-02-17T23:11:54.527Z,54.63
2023-02-17T23:14:21.159Z,54.85
2023-02-17T23:16:47.801Z,54.37
2023-02-17T23:19:16.461Z,54.30
2023-02-17T23:21:47.927Z,53.60
2023-02-17T23:24:16.226Z,53.91
2023-02-17T23:26:42.792Z,54.43
2023-02-17T23:29:09.894Z,53.99
2023-02-17T23:31:37.816Z,54.02
2023-02-17T23:34:04.787Z,54.18
2023-02-17T23:36:31.691Z,54.09
2023-02-17T23:38:59.550Z,54.09
2023-02-17T23:41:26.976Z,54.21
2023-02-17T23:43:53.972Z,54.29
2023-02-17T23:46:20.845Z,54.32
2023-02-17T23:48:47.687Z,54.09
2023-02-17T23:51:18.803Z,54.13
2023-02-17T23:53:45.692Z,54.08
2023-02-17T23:56:22.952Z,54.15
2023-02-17T23:58:49.579Z,54.05
